Time;durP1;ratioP1;P1;durP2;ratioP2;P2;SDS_P1;SDS_P2;PMS_P1;PMS_P2;Temp;Humidity;BMP_temperature;BMP_pressure;BME280_temperature;BME280_humidity;BME280_pressure;Samples;Min_cycle;Max_cycle;Signal;HPM_P1;HPM_P2
2021/09/19 00:00:59;;;;;;;0.17;0.10;;;15.00;99.90;;;;;;5011606;28;20478;-96
2021/09/19 00:03:29;;;;;;;0.20;0.20;;;15.00;99.90;;;;;;5011588;28;20038;-96
2021/09/19 00:05:55;;;;;;;0.10;0.10;;;15.00;99.90;;;;;;5011809;28;20049;-96
2021/09/19 00:08:22;;;;;;;0.10;0.10;;;15.00;99.90;;;;;;5001510;28;20042;-96
2021/09/19 00:10:50;;;;;;;0.57;0.30;;;15.00;99.90;;;;;;5010273;28;20125;-96
2021/09/19 00:13:17;;;;;;;0.13;0.13;;;15.00;99.90;;;;;;5011887;28;20044;-96
2021/09/19 00:15:44;;;;;;;0.08;0.08;;;15.00;99.90;;;;;;5027303;28;20058;-96
2021/09/19 00:18:10;;;;;;;0.05;0.05;;;15.00;99.90;;;;;;5034692;28;20049;-96
2021/09/19 00:20:39;;;;;;;0.35;0.25;;;15.00;99.90;;;;;;5035357;28;20474;-96
2021/09/19 00:23:07;;;;;;;0.30;0.20;;;15.00;99.90;;;;;;5018368;28;20052;-96
2021/09/19 00:25:34;;;;;;;0.00;0.00;;;15.00;99.90;;;;;;5034366;28;20474;-96
2021/09/19 00:28:01;;;;;;;0.45;0.30;;;15.00;99.90;;;;;;5034022;28;20041;-95
2021/09/19 00:30:28;;;;;;;0.17;0.17;;;15.00;99.90;;;;;;5034449;28;20049;-96
2021/09/19 00:32:55;;;;;;;0.10;0.10;;;15.00;99.90;;;;;;5034424;28;20042;-96
2021/09/19 00:35:21;;;;;;;0.52;0.20;;;15.00;99.90;;;;;;5017685;28;20559;-96
2021/09/19 00:37:48;;;;;;;0.20;0.15;;;15.00;99.90;;;;;;5034472;28;20044;-95
2021/09/19 00:40:15;;;;;;;0.10;0.10;;;15.00;99.90;;;;;;5033631;28;20048;-96
2021/09/19 00:42:42;;;;;;;0.03;0.03;;;15.00;99.90;;;;;;5034172;28;20038;-96
2021/09/19 00:45:19;;;;;;;0.30;0.20;;;15.00;99.90;;;;;;5033726;28;20030;-96
2021/09/19 00:47:47;;;;;;;0.10;0.10;;;15.00;99.90;;;;;;5033770;28;20132;-96
2021/09/19 00:50:17;;;;;;;0.38;0.20;;;15.00;99.90;;;;;;5033674;28;20046;-96
2021/09/19 00:52:48;;;;;;;0.10;0.10;;;15.00;99.90;;;;;;5034053;28;20477;-96
2021/09/19 00:55:16;;;;;;;0.13;0.13;;;15.00;99.90;;;;;;5017872;28;20069;-96
2021/09/19 00:57:46;;;;;;;0.20;0.20;;;15.00;99.90;;;;;;5033924;28;20041;-96
2021/09/19 01:00:17;;;;;;;0.88;0.40;;;15.00;99.90;;;;;;5033852;28;20037;-96
2021/09/19 01:02:44;;;;;;;0.17;0.17;;;15.00;99.90;;;;;;5033597;28;20037;-96
2021/09/19 01:05:16;;;;;;;0.00;0.00;;;14.90;99.90;;;;;;5033706;28;20049;-96
2021/09/19 01:07:44;;;;;;;0.30;0.20;;;15.00;99.90;;;;;;5033986;28;20469;-96
2021/09/19 01:10:19;;;;;;;0.52;0.25;;;14.90;99.90;;;;;;5004070;28;20038;-96
2021/09/19 01:12:48;;;;;;;0.10;0.10;;;14.90;99.90;;;;;;5033938;28;20037;-96
2021/09/19 01:15:15;;;;;;;0.20;0.20;;;14.90;99.90;;;;;;5017028;28;20053;-96
2021/09/19 01:17:42;;;;;;;0.15;0.08;;;14.90;99.90;;;;;;5033276;28;20046;-96
2021/09/19 01:20:14;;;;;;;0.00;0.00;;;14.90;99.90;;;;;;5032772;28;20045;-96
2021/09/19 01:22:46;;;;;;;0.38;0.10;;;14.90;99.90;;;;;;5033044;28;20041;-96
2021/09/19 01:25:14;;;;;;;0.10;0.10;;;14.90;99.90;;;;;;5032837;28;20045;-96
2021/09/19 01:27:44;;;;;;;0.00;0.00;;;14.90;99.90;;;;;;5031980;28;20041;-96
2021/09/19 01:30:12;;;;;;;0.00;0.00;;;14.90;99.90;;;;;;5032639;28;20567;-96
2021/09/19 01:32:40;;;;;;;0.20;0.20;;;14.90;99.90;;;;;;5033679;28;20096;-96
2021/09/19 01:35:08;;;;;;;0.20;0.10;;;14.80;99.90;;;;;;5016776;28;20042;-95
2021/09/19 01:37:35;;;;;;;0.00;0.00;;;14.80;99.90;;;;;;5016939;28;20042;-96
2021/09/19 01:40:03;;;;;;;0.35;0.25;;;14.80;99.90;;;;;;5032681;28;20040;-96
2021/09/19 01:42:30;;;;;;;0.20;0.10;;;14.80;99.90;;;;;;5032457;28;20038;-96
2021/09/19 01:44:57;;;;;;;0.20;0.10;;;14.80;99.90;;;;;;5032836;28;20037;-96
2021/09/19 01:47:24;;;;;;;0.25;0.20;;;14.80;99.90;;;;;;5032781;28;20529;-96
2021/09/19 01:49:51;;;;;;;0.30;0.20;;;14.70;99.90;;;;;;5016707;28;20081;-96
2021/09/19 01:52:21;;;;;;;0.47;0.13;;;14.70;99.90;;;;;;5032316;28;20042;-96
2021/09/19 01:54:48;;;;;;;0.10;0.08;;;14.70;99.90;;;;;;5032388;28;20038;-96
2021/09/19 01:57:20;;;;;;;0.52;0.17;;;14.70;99.90;;;;;;5032045;28;20542;-96
2021/09/19 01:59:51;;;;;;;0.10;0.10;;;14.70;99.90;;;;;;5032372;28;20081;-96
2021/09/19 02:02:20;;;;;;;0.15;0.08;;;14.70;99.90;;;;;;5032203;28;20103;-96
2021/09/19 02:04:49;;;;;;;0.10;0.10;;;14.70;99.90;;;;;;5032410;28;20041;-96
2021/09/19 02:07:16;;;;;;;0.00;0.00;;;14.60;99.90;;;;;;5031809;28;20034;-96
2021/09/19 02:09:43;;;;;;;0.08;0.08;;;14.60;99.90;;;;;;5032026;28;20049;-96
2021/09/19 02:12:13;;;;;;;0.17;0.10;;;14.60;99.90;;;;;;5032350;28;20037;-95
2021/09/19 02:14:42;;;;;;;0.00;0.00;;;14.60;99.90;;;;;;5031924;28;20108;-95
2021/09/19 02:17:10;;;;;;;0.22;0.20;;;14.50;99.90;;;;;;5032284;28;20038;-96
2021/09/19 02:19:37;;;;;;;0.10;0.10;;;14.50;99.90;;;;;;5031929;28;20128;-96
2021/09/19 02:22:12;;;;;;;0.10;0.10;;;14.50;99.90;;;;;;5031776;28;20041;-96
2021/09/19 02:24:39;;;;;;;0.10;0.10;;;14.50;99.90;;;;;;5031558;28;20422;-95
2021/09/19 02:27:07;;;;;;;0.10;0.10;;;14.40;99.90;;;;;;5032019;28;20556;-96
2021/09/19 02:29:34;;;;;;;0.10;0.10;;;14.40;99.90;;;;;;5031545;28;20042;-96
2021/09/19 02:32:01;;;;;;;0.00;0.00;;;14.40;99.90;;;;;;5032397;28;20045;-96
2021/09/19 02:34:28;;;;;;;0.00;0.00;;;14.40;99.90;;;;;;5031665;28;20034;-96
2021/09/19 02:36:55;;;;;;;0.17;0.10;;;14.30;99.90;;;;;;5031716;28;20038;-96
2021/09/19 02:39:21;;;;;;;0.10;0.10;;;14.30;99.90;;;;;;5031329;28;20049;-96
2021/09/19 02:41:49;;;;;;;0.00;0.00;;;14.30;99.90;;;;;;5031916;28;20077;-96
2021/09/19 02:44:16;;;;;;;0.00;0.00;;;14.20;99.90;;;;;;5031911;28;20049;-96
2021/09/19 02:46:43;;;;;;;0.10;0.10;;;14.20;99.90;;;;;;5031915;28;20042;-96
2021/09/19 02:49:10;;;;;;;0.10;0.10;;;14.20;99.90;;;;;;5015618;28;20405;-96
2021/09/19 02:51:37;;;;;;;0.22;0.20;;;14.20;99.90;;;;;;5031480;28;20041;-96
2021/09/19 02:54:04;;;;;;;0.00;0.00;;;14.10;99.90;;;;;;5015435;28;20038;-96
2021/09/19 02:56:30;;;;;;;0.10;0.10;;;14.10;99.90;;;;;;5031455;28;20089;-96
2021/09/19 02:58:57;;;;;;;0.00;0.00;;;14.10;99.90;;;;;;5031577;28;20049;-96
2021/09/19 03:01:24;;;;;;;0.00;0.00;;;14.10;99.90;;;;;;5031802;28;20041;-96
2021/09/19 03:03:51;;;;;;;0.10;0.10;;;14.00;99.90;;;;;;5031692;28;20117;-96
2021/09/19 03:06:19;;;;;;;0.00;0.00;;;14.00;99.90;;;;;;5031660;28;20034;-96
2021/09/19 03:08:45;;;;;;;0.00;0.00;;;14.00;99.90;;;;;;5031553;28;20054;-96
2021/09/19 03:11:12;;;;;;;0.00;0.00;;;13.90;99.90;;;;;;5031768;28;20046;-96
2021/09/19 03:13:39;;;;;;;0.30;0.10;;;13.90;99.90;;;;;;5015238;28;20056;-96
2021/09/19 03:16:06;;;;;;;0.00;0.00;;;13.90;99.90;;;;;;5031199;28;20588;-96
2021/09/19 03:18:33;;;;;;;0.05;0.05;;;13.90;99.90;;;;;;5031161;28;20046;-96
2021/09/19 03:21:00;;;;;;;0.08;0.03;;;13.80;99.90;;;;;;5031641;28;20029;-96
2021/09/19 03:23:26;;;;;;;0.00;0.00;;;13.80;99.90;;;;;;5015168;28;20042;-96
2021/09/19 03:25:53;;;;;;;0.00;0.00;;;13.80;99.90;;;;;;5020982;28;20117;-96
2021/09/19 03:28:20;;;;;;;0.10;0.10;;;13.80;99.90;;;;;;5003461;28;20422;-95
2021/09/19 03:30:48;;;;;;;0.00;0.00;;;13.80;99.90;;;;;;5030097;28;20045;-95
2021/09/19 03:33:15;;;;;;;0.00;0.00;;;13.70;99.90;;;;;;5006985;28;20046;-96
2021/09/19 03:35:41;;;;;;;0.08;0.03;;;13.70;99.90;;;;;;5011558;28;20046;-96
2021/09/19 03:38:08;;;;;;;0.20;0.20;;;13.60;99.90;;;;;;4994769;28;20045;-96
2021/09/19 03:40:35;;;;;;;0.10;0.10;;;13.60;99.90;;;;;;5011668;28;20085;-96
2021/09/19 03:43:02;;;;;;;0.10;0.10;;;13.50;99.90;;;;;;5011584;28;20050;-96
2021/09/19 03:45:30;;;;;;;0.10;0.10;;;13.50;99.90;;;;;;5011289;28;20100;-96
2021/09/19 03:48:05;;;;;;;0.15;0.10;;;13.40;99.90;;;;;;5011232;28;20498;-95
2021/09/19 03:50:32;;;;;;;0.00;0.00;;;13.40;99.90;;;;;;5011993;28;20133;-96
2021/09/19 03:52:59;;;;;;;0.10;0.10;;;13.30;99.90;;;;;;5015349;28;20569;-96
2021/09/19 03:55:26;;;;;;;0.08;0.08;;;13.20;99.90;;;;;;5015393;28;20096;-94
2021/09/19 03:57:53;;;;;;;0.00;0.00;;;13.20;99.90;;;;;;4999153;28;20075;-96
2021/09/19 04:00:20;;;;;;;0.00;0.00;;;13.10;99.90;;;;;;5015208;28;20126;-95
2021/09/19 04:02:47;;;;;;;0.00;0.00;;;13.10;99.90;;;;;;5014629;28;20065;-95
2021/09/19 04:05:14;;;;;;;0.00;0.00;;;13.00;99.90;;;;;;5014695;28;20042;-95
2021/09/19 04:07:41;;;;;;;0.10;0.10;;;13.00;99.90;;;;;;5014651;28;20049;-96
2021/09/19 04:10:09;;;;;;;0.00;0.00;;;12.90;99.90;;;;;;4983289;28;20061;-95
2021/09/19 04:12:36;;;;;;;0.00;0.00;;;12.90;99.90;;;;;;4998712;28;20042;-96
2021/09/19 04:15:04;;;;;;;0.10;0.10;;;12.90;99.90;;;;;;5014820;28;20053;-96
2021/09/19 04:17:31;;;;;;;0.00;0.00;;;12.90;99.90;;;;;;5014543;28;20046;-96
2021/09/19 04:19:57;;;;;;;0.35;0.10;;;12.90;99.90;;;;;;5015004;28;20043;-96
2021/09/19 04:22:25;;;;;;;0.00;0.00;;;12.80;99.90;;;;;;4998824;28;20042;-96
2021/09/19 04:24:53;;;;;;;0.00;0.00;;;12.80;99.90;;;;;;5014709;28;20121;-95
2021/09/19 04:27:20;;;;;;;0.15;0.15;;;12.80;99.90;;;;;;5014359;28;20473;-96
2021/09/19 04:29:47;;;;;;;0.10;0.10;;;12.90;99.90;;;;;;5014591;28;20167;-96
2021/09/19 04:32:14;;;;;;;0.10;0.10;;;12.80;99.90;;;;;;5014681;28;20120;-95
2021/09/19 04:34:41;;;;;;;0.10;0.10;;;12.80;99.90;;;;;;5014357;28;20046;-96
2021/09/19 04:37:11;;;;;;;0.10;0.10;;;12.70;99.90;;;;;;4998464;28;20486;-96
2021/09/19 04:39:38;;;;;;;0.00;0.00;;;12.70;99.90;;;;;;5013803;28;20042;-95
2021/09/19 04:42:05;;;;;;;0.20;0.20;;;12.70;99.90;;;;;;5014237;28;20045;-96
2021/09/19 04:44:32;;;;;;;0.00;0.00;;;12.70;99.90;;;;;;5014207;28;20124;-95
2021/09/19 04:46:59;;;;;;;0.10;0.10;;;12.60;99.90;;;;;;5014205;28;20046;-96
2021/09/19 04:49:25;;;;;;;0.17;0.15;;;12.60;99.90;;;;;;4998768;28;20508;-95
2021/09/19 04:51:52;;;;;;;0.00;0.00;;;12.60;99.90;;;;;;5014305;28;20042;-95
2021/09/19 04:54:19;;;;;;;0.03;0.03;;;12.60;99.90;;;;;;5013868;28;20057;-96
2021/09/19 04:56:45;;;;;;;0.00;0.00;;;12.60;99.90;;;;;;5013479;28;20509;-96
2021/09/19 04:59:12;;;;;;;0.00;0.00;;;12.50;99.90;;;;;;5013910;28;20604;-95
2021/09/19 05:01:39;;;;;;;0.00;0.00;;;12.60;99.90;;;;;;5013405;28;20133;-95
2021/09/19 05:04:05;;;;;;;0.00;0.00;;;12.50;99.90;;;;;;5013700;28;20039;-96
2021/09/19 05:06:32;;;;;;;0.00;0.00;;;12.50;99.90;;;;;;5013619;28;20398;-95
2021/09/19 05:08:59;;;;;;;0.00;0.00;;;12.50;99.90;;;;;;5013142;28;20046;-95
2021/09/19 05:11:26;;;;;;;0.00;0.00;;;12.50;99.90;;;;;;5013279;28;20046;-95
2021/09/19 05:13:52;;;;;;;0.00;0.00;;;12.40;99.90;;;;;;5012848;28;20070;-95
2021/09/19 05:16:19;;;;;;;0.00;0.00;;;12.40;99.90;;;;;;5016337;28;20050;-96
2021/09/19 05:18:46;;;;;;;0.00;0.00;;;12.40;99.90;;;;;;5015718;28;20046;-95
2021/09/19 05:21:13;;;;;;;0.00;0.00;;;12.40;99.90;;;;;;5016740;28;20084;-96
2021/09/19 05:23:39;;;;;;;0.10;0.10;;;12.40;99.90;;;;;;5017562;28;20133;-96
2021/09/19 05:26:06;;;;;;;0.00;0.00;;;12.40;99.90;;;;;;5017052;28;20132;-95
2021/09/19 05:28:33;;;;;;;0.00;0.00;;;12.30;99.90;;;;;;5016917;28;20052;-96
2021/09/19 05:31:00;;;;;;;0.00;0.00;;;12.40;99.90;;;;;;5016853;28;20660;-96
2021/09/19 05:33:26;;;;;;;0.00;0.00;;;12.40;99.90;;;;;;5016817;28;20125;-95
2021/09/19 05:35:53;;;;;;;0.10;0.10;;;12.40;99.90;;;;;;5016143;28;20136;-96
2021/09/19 05:38:20;;;;;;;0.00;0.00;;;12.40;99.90;;;;;;5016671;28;20496;-93
2021/09/19 05:40:47;;;;;;;0.00;0.00;;;12.40;99.90;;;;;;5018678;28;20037;-96
2021/09/19 05:43:14;;;;;;;0.00;0.00;;;12.40;99.90;;;;;;5008821;28;20025;-96
2021/09/19 05:45:40;;;;;;;0.20;0.20;;;12.40;99.90;;;;;;5027293;28;20037;-95
2021/09/19 05:48:07;;;;;;;0.00;0.00;;;12.40;99.90;;;;;;5016700;28;20042;-96
2021/09/19 05:50:34;;;;;;;0.00;0.00;;;12.30;99.90;;;;;;5020121;28;20044;-96
2021/09/19 05:53:01;;;;;;;0.05;0.05;;;12.40;99.90;;;;;;5035948;28;20041;-96
2021/09/19 05:55:28;;;;;;;0.00;0.00;;;12.40;99.90;;;;;;5035859;28;20052;-96
2021/09/19 05:57:55;;;;;;;0.10;0.10;;;12.40;99.90;;;;;;4998490;28;20516;-96
2021/09/19 06:00:22;;;;;;;0.00;0.00;;;12.30;99.90;;;;;;5036175;28;20034;-96
2021/09/19 06:02:48;;;;;;;0.08;0.08;;;12.30;99.90;;;;;;5005955;28;20504;-96
2021/09/19 06:05:15;;;;;;;0.05;0.05;;;12.30;99.90;;;;;;5015949;28;20121;-96
2021/09/19 06:07:42;;;;;;;0.00;0.00;;;12.30;99.90;;;;;;5015994;28;20088;-96
2021/09/19 06:10:09;;;;;;;0.10;0.10;;;12.30;99.90;;;;;;5016332;28;20034;-95
2021/09/19 06:12:36;;;;;;;0.00;0.00;;;12.30;99.90;;;;;;5018347;28;20045;-96
2021/09/19 06:15:04;;;;;;;0.00;0.00;;;12.30;99.90;;;;;;5034613;28;20489;-96
2021/09/19 06:17:31;;;;;;;0.00;0.00;;;12.40;99.90;;;;;;5010266;28;20042;-96
2021/09/19 06:19:58;;;;;;;0.10;0.10;;;12.40;99.90;;;;;;5017864;28;20046;-96
2021/09/19 06:22:25;;;;;;;0.00;0.00;;;12.40;99.90;;;;;;5027119;28;20048;-95
2021/09/19 06:24:52;;;;;;;0.10;0.10;;;12.40;99.90;;;;;;5027484;28;20072;-95
2021/09/19 06:27:19;;;;;;;0.63;0.15;;;12.40;99.90;;;;;;5030537;28;20044;-95
2021/09/19 06:29:46;;;;;;;0.00;0.00;;;12.50;99.90;;;;;;5029618;28;20113;-94
2021/09/19 06:32:13;;;;;;;0.10;0.10;;;12.50;99.90;;;;;;5021673;28;20074;-96
2021/09/19 06:34:40;;;;;;;0.00;0.00;;;12.60;99.90;;;;;;5016597;28;20132;-95
2021/09/19 06:37:08;;;;;;;0.00;0.00;;;12.60;99.90;;;;;;5016065;28;20032;-96
2021/09/19 06:39:35;;;;;;;0.00;0.00;;;12.70;99.90;;;;;;5021051;28;20038;-96
2021/09/19 06:42:02;;;;;;;0.00;0.00;;;12.70;99.90;;;;;;5015399;28;20033;-96
2021/09/19 06:44:29;;;;;;;0.10;0.10;;;12.70;99.90;;;;;;5015308;28;20473;-95
2021/09/19 06:46:58;;;;;;;0.00;0.00;;;12.60;99.90;;;;;;4999302;28;20080;-96
2021/09/19 06:49:25;;;;;;;0.10;0.10;;;12.60;99.90;;;;;;5015390;28;20084;-95
2021/09/19 06:51:52;;;;;;;0.10;0.10;;;12.60;99.90;;;;;;5015448;28;20489;-95
2021/09/19 06:54:20;;;;;;;0.00;0.00;;;12.60;99.90;;;;;;5015561;28;20124;-95
2021/09/19 06:56:48;;;;;;;0.00;0.00;;;12.60;99.90;;;;;;5032117;28;20046;-94
2021/09/19 06:59:15;;;;;;;0.00;0.00;;;12.60;99.90;;;;;;4993336;28;20524;-94
2021/09/19 07:01:43;;;;;;;0.05;0.05;;;12.60;99.90;;;;;;5021486;28;20030;-95
2021/09/19 07:04:10;;;;;;;0.00;0.00;;;12.70;99.90;;;;;;5027387;28;20453;-94
2021/09/19 07:06:37;;;;;;;0.05;0.05;;;12.70;99.90;;;;;;5015644;28;20034;-96
2021/09/19 07:09:04;;;;;;;0.00;0.00;;;12.70;99.90;;;;;;4999343;28;20448;-96
2021/09/19 07:11:31;;;;;;;0.10;0.10;;;12.70;99.90;;;;;;5014969;28;20049;-93
2021/09/19 07:13:58;;;;;;;0.10;0.10;;;12.80;99.90;;;;;;4998954;28;20048;-95
2021/09/19 07:16:25;;;;;;;0.00;0.00;;;12.70;99.90;;;;;;5016302;28;20486;-95
2021/09/19 07:18:51;;;;;;;0.00;0.00;;;12.80;99.90;;;;;;5014973;28;20049;-93
2021/09/19 07:21:18;;;;;;;0.00;0.00;;;12.80;99.90;;;;;;5015544;28;20044;-93
2021/09/19 07:23:45;;;;;;;0.00;0.00;;;12.90;99.90;;;;;;5014964;28;20513;-92
2021/09/19 07:26:22;;;;;;;0.00;0.00;;;12.90;99.90;;;;;;5000657;28;20034;-96
2021/09/19 07:28:49;;;;;;;0.00;0.00;;;13.00;99.90;;;;;;5003299;28;20052;-94
2021/09/19 07:31:16;;;;;;;0.00;0.00;;;13.00;99.90;;;;;;4986906;28;20481;-92
2021/09/19 07:33:43;;;;;;;0.10;0.10;;;13.10;99.90;;;;;;5018637;28;20544;-92
2021/09/19 07:36:10;;;;;;;0.10;0.10;;;13.20;99.90;;;;;;5018826;28;20045;-92
2021/09/19 07:38:43;;;;;;;0.00;0.00;;;13.30;99.90;;;;;;4986823;28;20073;-93
2021/09/19 07:41:10;;;;;;;0.00;0.00;;;13.30;99.90;;;;;;5018941;28;20038;-94
2021/09/19 07:43:37;;;;;;;0.00;0.00;;;13.30;99.90;;;;;;5013427;28;20042;-93
2021/09/19 07:46:04;;;;;;;0.10;0.10;;;13.40;99.90;;;;;;5002910;28;20100;-94
2021/09/19 07:48:31;;;;;;;0.00;0.00;;;13.50;99.90;;;;;;5002771;28;20050;-95
2021/09/19 07:50:58;;;;;;;0.13;0.13;;;13.60;99.90;;;;;;5018078;28;20052;-95
2021/09/19 07:53:25;;;;;;;0.00;0.00;;;13.70;99.90;;;;;;5018817;28;20050;-93
2021/09/19 07:55:52;;;;;;;0.00;0.00;;;13.80;99.90;;;;;;5018361;28;20049;-93
2021/09/19 07:58:19;;;;;;;0.00;0.00;;;13.80;99.90;;;;;;5018040;28;20038;-93
2021/09/19 08:00:46;;;;;;;0.43;0.43;;;13.80;99.90;;;;;;5038248;28;20037;-93
2021/09/19 08:03:12;;;;;;;0.60;0.10;;;13.90;99.90;;;;;;5038100;28;20068;-95
2021/09/19 08:05:45;;;;;;;0.00;0.00;;;13.90;99.90;;;;;;5024185;28;20107;-95
2021/09/19 08:08:11;;;;;;;0.10;0.10;;;14.00;99.90;;;;;;5005211;28;20046;-92
2021/09/19 08:10:38;;;;;;;0.00;0.00;;;14.10;99.90;;;;;;5002644;28;20046;-94
2021/09/19 08:13:06;;;;;;;0.10;0.10;;;14.20;99.90;;;;;;5035272;28;20038;-95
2021/09/19 08:15:33;;;;;;;0.00;0.00;;;14.30;99.90;;;;;;5021012;28;20068;-95
2021/09/19 08:18:00;;;;;;;0.00;0.00;;;14.40;99.90;;;;;;5037297;28;20053;-94
2021/09/19 08:20:28;;;;;;;0.10;0.10;;;14.50;99.90;;;;;;5006378;28;20033;-95
2021/09/19 08:22:55;;;;;;;0.00;0.00;;;14.50;99.90;;;;;;5037556;28;20033;-96
2021/09/19 08:25:25;;;;;;;0.00;0.00;;;14.60;99.90;;;;;;5037726;28;20128;-88
2021/09/19 08:27:52;;;;;;;0.00;0.00;;;14.70;99.90;;;;;;5036466;28;20041;-85
2021/09/19 08:30:19;;;;;;;0.10;0.10;;;14.80;99.90;;;;;;5032784;28;20481;-89
2021/09/19 08:32:46;;;;;;;0.00;0.00;;;14.90;99.90;;;;;;5021590;28;20038;-87
2021/09/19 08:35:14;;;;;;;0.00;0.00;;;15.00;99.90;;;;;;5020657;28;20091;-89
2021/09/19 08:37:41;;;;;;;0.20;0.20;;;15.10;99.90;;;;;;5033831;28;20042;-92
2021/09/19 08:40:10;;;;;;;0.00;0.00;;;15.10;99.90;;;;;;5012002;28;20497;-89
2021/09/19 08:42:41;;;;;;;0.00;0.00;;;15.20;99.90;;;;;;5003557;28;20048;-88
2021/09/19 08:45:09;;;;;;;0.13;0.10;;;15.30;99.90;;;;;;5028159;28;20042;-87
2021/09/19 08:47:36;;;;;;;0.00;0.00;;;15.40;99.90;;;;;;5021864;28;20037;-88
2021/09/19 08:50:09;;;;;;;0.00;0.00;;;15.50;99.90;;;;;;5018490;28;20037;-89
2021/09/19 08:52:36;;;;;;;0.10;0.10;;;15.60;99.90;;;;;;5017531;28;20046;-89
2021/09/19 08:55:07;;;;;;;0.10;0.10;;;15.70;99.90;;;;;;5016922;28;20049;-88
2021/09/19 08:57:37;;;;;;;0.15;0.05;;;15.80;99.90;;;;;;5001295;28;20042;-88
2021/09/19 09:00:10;;;;;;;0.20;0.15;;;15.90;99.90;;;;;;4985271;28;20042;-91
2021/09/19 09:02:57;;;;;;;0.15;0.10;;;16.00;99.90;;;;;;5020987;28;20038;-96
2021/09/19 09:05:28;;;;;;;0.00;0.00;;;16.10;99.90;;;;;;5017086;28;20389;-93
2021/09/19 09:07:57;;;;;;;0.10;0.10;;;16.30;99.90;;;;;;5017366;28;20038;-90
2021/09/19 09:10:39;;;;;;;0.00;0.00;;;16.40;99.90;;;;;;5032409;28;20072;-91
2021/09/19 09:13:10;;;;;;;0.20;0.13;;;16.40;99.90;;;;;;5034737;28;20048;-94
2021/09/19 09:15:52;;;;;;;0.10;0.10;;;16.50;99.90;;;;;;5034079;28;20147;-93
2021/09/19 09:18:45;;;;;;;0.22;0.20;;;16.60;99.90;;;;;;5036409;28;20088;-95
2021/09/19 09:21:20;;;;;;;0.22;0.08;;;16.70;99.90;;;;;;5036378;28;20044;-92
2021/09/19 09:23:49;;;;;;;0.82;0.40;;;16.70;99.90;;;;;;5021087;28;20034;-88
2021/09/19 09:26:28;;;;;;;0.45;0.20;;;16.70;99.90;;;;;;5016323;28;20038;-88
2021/09/19 09:29:10;;;;;;;0.10;0.10;;;16.80;99.90;;;;;;5016689;28;20042;-92
2021/09/19 09:32:13;;;;;;;0.45;0.20;;;16.90;99.90;;;;;;5018714;28;20038;-95
2021/09/19 09:39:52;;;;;;;0.20;0.20;;;17.00;99.90;;;;;;5068744;28;20060;-92
2021/09/19 09:42:21;;;;;;;0.98;0.38;;;17.10;99.90;;;;;;5004249;28;20044;-87
2021/09/19 09:44:55;;;;;;;0.20;0.20;;;17.10;99.90;;;;;;5038744;28;20493;-96
2021/09/19 09:47:32;;;;;;;0.67;0.60;;;17.10;99.90;;;;;;5036160;28;20033;-92
2021/09/19 09:50:00;;;;;;;0.65;0.50;;;17.10;99.90;;;;;;5035452;28;20049;-92
2021/09/19 09:52:30;;;;;;;0.55;0.32;;;17.10;99.90;;;;;;5036056;28;20096;-94
2021/09/19 09:55:00;;;;;;;0.38;0.25;;;17.10;99.90;;;;;;5035861;28;20095;-93
2021/09/19 09:57:36;;;;;;;1.42;0.70;;;17.30;99.90;;;;;;5035540;28;20124;-93
2021/09/19 10:00:10;;;;;;;0.88;0.40;;;17.30;99.90;;;;;;5035843;28;20092;-95
2021/09/19 10:02:43;;;;;;;0.17;0.13;;;17.30;99.90;;;;;;5036214;28;20103;-94
2021/09/19 10:05:12;;;;;;;1.75;0.30;;;17.40;99.90;;;;;;5036340;28;20047;-94
2021/09/19 10:07:40;;;;;;;1.38;0.65;;;17.50;99.90;;;;;;5036270;28;20041;-94
2021/09/19 10:10:12;;;;;;;1.20;0.60;;;17.60;99.90;;;;;;5036047;28;20033;-94
2021/09/19 10:12:42;;;;;;;0.65;0.32;;;17.60;99.90;;;;;;5036042;28;20390;-93
2021/09/19 10:15:10;;;;;;;0.30;0.30;;;17.70;99.90;;;;;;5036082;28;20045;-92
2021/09/19 10:17:39;;;;;;;0.80;0.50;;;17.60;99.90;;;;;;5036302;28;20077;-93
2021/09/19 10:20:43;;;;;;;0.65;0.30;;;17.70;99.90;;;;;;5035323;28;20128;-93
2021/09/19 10:23:21;;;;;;;0.47;0.30;;;17.70;99.90;;;;;;5019261;28;20396;-93
2021/09/19 10:26:04;;;;;;;0.20;0.20;;;17.70;99.90;;;;;;5035597;28;20037;-93
2021/09/19 10:28:36;;;;;;;0.52;0.30;;;17.70;99.90;;;;;;5035336;28;20051;-94
2021/09/19 10:31:09;;;;;;;0.40;0.32;;;17.70;99.90;;;;;;5035556;28;20041;-95
2021/09/19 10:33:42;;;;;;;1.33;0.40;;;17.70;99.90;;;;;;5035120;28;20041;-94
2021/09/19 10:36:37;;;;;;;0.32;0.30;;;17.70;99.90;;;;;;5035403;28;20049;-94
2021/09/19 10:39:25;;;;;;;0.47;0.30;;;17.70;99.90;;;;;;5035104;28;20059;-94
2021/09/19 10:42:25;;;;;;;0.52;0.22;;;17.70;99.90;;;;;;5035539;28;20041;-95
2021/09/19 10:45:01;;;;;;;0.90;0.28;;;17.60;99.90;;;;;;5035245;28;20072;-94
2021/09/19 10:47:29;;;;;;;;;;;17.80;99.90;;;;;;5035424;28;20073;-95
2021/09/19 10:50:25;;;;;;;0.65;0.40;;;17.90;99.90;;;;;;5035387;28;19917;-93
2021/09/19 10:52:53;;;;;;;0.57;0.40;;;17.80;99.90;;;;;;5035487;28;20056;-95
2021/09/19 10:55:39;;;;;;;0.03;0.03;;;17.90;99.90;;;;;;5034863;28;20072;-95
2021/09/19 10:58:14;;;;;;;0.50;0.30;;;18.00;99.90;;;;;;5035079;28;20132;-95
2021/09/19 11:00:45;;;;;;;1.25;0.38;;;18.00;99.90;;;;;;5018537;28;20041;-95
2021/09/19 11:03:28;;;;;;;0.30;0.20;;;18.00;99.90;;;;;;5035137;28;20065;-95
2021/09/19 11:05:55;;;;;;;0.82;0.50;;;18.00;99.90;;;;;;5035065;28;20041;-94
2021/09/19 11:08:21;;;;;;;0.57;0.50;;;18.00;99.90;;;;;;5034707;28;20048;-95
2021/09/19 11:10:48;;;;;;;0.90;0.47;;;18.00;99.90;;;;;;5035495;28;20049;-93
2021/09/19 11:13:26;;;;;;;1.20;0.55;;;18.10;99.90;;;;;;5034981;28;20045;-93
2021/09/19 11:16:22;;;;;;;0.73;0.35;;;18.20;99.90;;;;;;5035064;28;20044;-94
2021/09/19 11:18:54;;;;;;;0.10;0.10;;;18.10;99.90;;;;;;5027889;28;20111;-93
2021/09/19 11:21:21;;;;;;;0.22;0.20;;;18.00;99.90;;;;;;5034666;28;20034;-94
2021/09/19 11:23:50;;;;;;;0.10;0.10;;;18.10;99.90;;;;;;5035154;28;20056;-94
2021/09/19 11:26:32;;;;;;;0.50;0.35;;;17.90;99.90;;;;;;5034835;28;20061;-93
2021/09/19 11:29:05;;;;;;;0.35;0.22;;;17.80;99.90;;;;;;5034711;28;20046;-93
2021/09/19 11:31:32;;;;;;;0.38;0.28;;;17.60;99.90;;;;;;5034058;28;20045;-94
2021/09/19 11:34:05;;;;;;;1.55;0.45;;;17.50;99.90;;;;;;5018498;28;20045;-93
2021/09/19 11:36:32;;;;;;;0.55;0.30;;;17.50;99.90;;;;;;5034113;28;20045;-92
2021/09/19 11:38:59;;;;;;;0.43;0.25;;;17.60;99.90;;;;;;5034289;28;20056;-93
2021/09/19 11:41:27;;;;;;;0.25;0.20;;;17.60;99.90;;;;;;5034425;28;20064;-93
2021/09/19 11:43:55;;;;;;;0.32;0.25;;;17.60;99.90;;;;;;5034775;28;20132;-94
2021/09/19 11:46:25;;;;;;;0.15;0.10;;;17.70;99.90;;;;;;5034280;28;20042;-94
2021/09/19 11:48:53;;;;;;;0.45;0.25;;;17.70;99.90;;;;;;5034830;28;20038;-94
2021/09/19 11:51:21;;;;;;;2.92;0.50;;;17.70;99.90;;;;;;5034617;28;20045;-94
2021/09/19 11:53:53;;;;;;;0.25;0.20;;;17.70;99.90;;;;;;5034645;28;20049;-93
2021/09/19 11:56:22;;;;;;;0.30;0.20;;;17.70;99.90;;;;;;5034328;28;20057;-95
2021/09/19 11:58:51;;;;;;;0.22;0.22;;;17.70;99.90;;;;;;5049935;28;20050;-94
2021/09/19 12:01:23;;;;;;;0.52;0.25;;;17.70;99.90;;;;;;5034725;28;20455;-93
2021/09/19 12:03:50;;;;;;;0.20;0.20;;;17.80;99.90;;;;;;5034616;28;20084;-93
2021/09/19 12:06:17;;;;;;;0.20;0.20;;;17.80;99.90;;;;;;5034732;28;20037;-94
2021/09/19 12:08:48;;;;;;;0.10;0.10;;;17.80;99.90;;;;;;5034167;28;20099;-93
2021/09/19 12:11:15;;;;;;;0.10;0.10;;;17.80;99.90;;;;;;5034635;28;20469;-94
2021/09/19 12:13:47;;;;;;;0.17;0.10;;;17.80;99.90;;;;;;5037766;28;20038;-93
2021/09/19 12:16:19;;;;;;;1.17;0.50;;;17.70;99.90;;;;;;5038101;28;20092;-91
2021/09/19 12:18:49;;;;;;;0.47;0.30;;;17.70;99.90;;;;;;5037344;28;20524;-92
2021/09/19 12:21:27;;;;;;;1.30;0.30;;;17.80;99.90;;;;;;5037896;28;20041;-93
2021/09/19 12:23:56;;;;;;;0.10;0.10;;;17.80;99.90;;;;;;5037827;28;20132;-92
2021/09/19 12:26:31;;;;;;;0.25;0.20;;;17.90;99.90;;;;;;5037818;28;20080;-92
2021/09/19 12:29:03;;;;;;;0.10;0.10;;;18.00;99.90;;;;;;5038057;28;20497;-92
2021/09/19 12:31:44;;;;;;;0.15;0.10;;;18.00;99.90;;;;;;5037532;28;20404;-93
2021/09/19 12:34:20;;;;;;;0.20;0.15;;;18.10;99.90;;;;;;5037580;28;20392;-93
2021/09/19 12:36:49;;;;;;;0.85;0.52;;;18.10;99.90;;;;;;5023047;28;20056;-93
2021/09/19 12:39:21;;;;;;;0.20;0.20;;;18.10;99.90;;;;;;5037783;28;20133;-92
2021/09/19 12:41:51;;;;;;;4.20;0.45;;;18.10;99.90;;;;;;5053510;28;20041;-92
2021/09/19 12:44:21;;;;;;;0.60;0.30;;;18.20;99.90;;;;;;5037538;28;20033;-93
2021/09/19 12:46:50;;;;;;;0.10;0.10;;;18.20;99.90;;;;;;5037281;28;20041;-93
2021/09/19 12:49:25;;;;;;;0.20;0.20;;;18.30;99.90;;;;;;5037683;28;20044;-92
2021/09/19 12:52:13;;;;;;;0.55;0.28;;;18.50;99.90;;;;;;5037547;28;20045;-92
2021/09/19 12:54:48;;;;;;;0.52;0.30;;;18.50;99.90;;;;;;5037582;28;20132;-93
2021/09/19 12:57:16;;;;;;;;;;;18.30;99.90;;;;;;5037726;28;20045;-92
2021/09/19 12:59:43;;;;;;;0.35;0.20;;;18.30;99.90;;;;;;5036545;28;19921;-92
2021/09/19 13:02:10;;;;;;;0.57;0.28;;;18.20;99.90;;;;;;5036814;28;20180;-94
2021/09/19 13:04:37;;;;;;;0.43;0.30;;;18.20;99.90;;;;;;5036837;28;20034;-94